createdAt,value
2022-11-05T00:00:36.467Z,56.80
2022-11-05T00:03:21.840Z,56.80
2022-11-05T00:06:07.971Z,56.70
2022-11-05T00:08:53.371Z,56.80
2022-11-05T00:11:39.908Z,56.90
2022-11-05T00:14:25.060Z,56.90
2022-11-05T00:16:51.642Z,56.90
2022-11-05T00:19:18.260Z,56.90
2022-11-05T00:22:03.515Z,56.90
2022-11-05T00:24:48.939Z,56.80
2022-11-05T00:27:15.510Z,56.90
2022-11-05T00:29:42.077Z,56.90
2022-11-05T00:32:08.669Z,56.90
2022-11-05T00:34:35.239Z,56.90
2022-11-05T00:37:01.810Z,57.00
2022-11-05T00:39:28.721Z,56.90
2022-11-05T00:42:13.896Z,56.90
2022-11-05T00:44:59.191Z,56.90
2022-11-05T00:47:44.523Z,56.90
2022-11-05T00:50:11.608Z,56.90
2022-11-05T00:52:57.066Z,56.90
2022-11-05T00:55:24.774Z,56.80
2022-11-05T00:57:51.561Z,56.90
2022-11-05T01:00:18.447Z,56.80
2022-11-05T01:02:45.157Z,56.80
2022-11-05T01:05:11.985Z,56.80
2022-11-05T01:07:38.614Z,56.80
2022-11-05T01:10:05.617Z,56.80
2022-11-05T01:12:32.271Z,56.80
2022-11-05T01:14:58.869Z,56.70
2022-11-05T01:17:25.470Z,56.70
2022-11-05T01:19:52.051Z,56.80
2022-11-05T01:22:18.711Z,56.80
2022-11-05T01:24:45.294Z,56.70
2022-11-05T01:27:11.891Z,56.80
2022-11-05T01:29:38.475Z,56.80
2022-11-05T01:32:05.244Z,56.80
2022-11-05T01:34:31.889Z,56.90
2022-11-05T01:36:58.465Z,56.90
2022-11-05T01:39:25.059Z,56.80
2022-11-05T01:41:51.627Z,56.80
2022-11-05T01:44:47.860Z,56.80
2022-11-05T01:47:24.072Z,56.80
2022-11-05T01:49:50.651Z,56.80
2022-11-05T01:52:17.218Z,56.80
2022-11-05T01:54:43.797Z,56.80
2022-11-05T01:57:10.358Z,56.80
2022-11-05T01:59:39.057Z,56.70
2022-11-05T02:02:06.658Z,56.70
2022-11-05T02:04:36.452Z,56.70
2022-11-05T02:07:03.461Z,56.70
2022-11-05T02:09:33.339Z,56.70
2022-11-05T02:11:59.921Z,56.70
2022-11-05T02:14:26.575Z,56.70
2022-11-05T02:16:59.540Z,56.70
2022-11-05T02:19:49.263Z,56.70
2022-11-05T02:22:38.810Z,56.70
2022-11-05T02:25:34.162Z,56.70
2022-11-05T02:28:20.142Z,56.60
2022-11-05T02:31:01.800Z,56.70
2022-11-05T02:33:35.767Z,56.80
2022-11-05T02:36:15.785Z,56.80
2022-11-05T02:38:53.350Z,56.80
2022-11-05T02:41:53.496Z,56.80
2022-11-05T02:44:26.945Z,56.80
2022-11-05T02:47:19.598Z,56.80
2022-11-05T02:49:59.804Z,56.80
2022-11-05T02:52:50.625Z,56.80
2022-11-05T02:55:47.050Z,56.80
2022-11-05T02:58:13.634Z,56.80
2022-11-05T03:00:50.885Z,56.80
2022-11-05T03:03:39.100Z,56.80
2022-11-05T03:06:15.520Z,56.80
2022-11-05T03:09:00.630Z,56.80
2022-11-05T03:11:28.672Z,56.80
2022-11-05T03:13:59.865Z,56.70
2022-11-05T03:16:39.666Z,56.70
2022-11-05T03:19:15.792Z,56.70
2022-11-05T03:21:50.499Z,56.70
2022-11-05T03:24:23.073Z,56.70
2022-11-05T03:26:56.389Z,56.70
2022-11-05T03:29:25.828Z,56.70
2022-11-05T03:31:53.440Z,56.70
2022-11-05T03:34:21.479Z,56.70
2022-11-05T03:36:50.754Z,56.70
2022-11-05T03:39:23.622Z,56.60
2022-11-05T03:41:51.839Z,56.70
2022-11-05T03:44:25.455Z,56.80
2022-11-05T03:46:52.601Z,56.80
2022-11-05T03:49:21.226Z,56.80
2022-11-05T03:51:57.134Z,56.70
2022-11-05T03:54:23.725Z,56.70
2022-11-05T03:57:07.551Z,56.70
2022-11-05T03:59:43.835Z,56.70
2022-11-05T04:02:11.488Z,56.70
2022-11-05T04:04:38.251Z,56.70
2022-11-05T04:07:23.660Z,56.80
2022-11-05T04:10:08.937Z,56.80
2022-11-05T04:12:54.310Z,56.80
2022-11-05T04:15:20.884Z,56.80
2022-11-05T04:17:47.461Z,56.80
2022-11-05T04:20:32.888Z,56.80
2022-11-05T04:23:19.368Z,56.80
2022-11-05T04:25:45.947Z,56.80
2022-11-05T04:28:12.718Z,56.80
2022-11-05T04:30:39.434Z,56.80
2022-11-05T04:33:06.662Z,56.70
2022-11-05T04:35:42.762Z,56.70
2022-11-05T04:38:10.687Z,56.70
2022-11-05T04:40:37.422Z,56.70
2022-11-05T04:43:04.162Z,56.70
2022-11-05T04:45:32.947Z,56.70
2022-11-05T04:47:59.739Z,56.70
2022-11-05T04:50:26.379Z,56.60
2022-11-05T04:52:52.956Z,56.60
2022-11-05T04:55:19.648Z,56.60
2022-11-05T04:57:49.850Z,56.60
2022-11-05T05:00:17.186Z,56.60
2022-11-05T05:02:44.340Z,56.60
2022-11-05T05:05:10.918Z,56.70
2022-11-05T05:07:37.612Z,56.70
2022-11-05T05:10:04.711Z,56.70
2022-11-05T05:12:32.740Z,56.70
2022-11-05T05:14:59.333Z,56.70
2022-11-05T05:17:25.981Z,56.70
2022-11-05T05:20:11.051Z,56.80
2022-11-05T05:22:37.681Z,56.70
2022-11-05T05:25:04.550Z,56.70
2022-11-05T05:27:31.305Z,56.70
2022-11-05T05:29:58.317Z,56.60
2022-11-05T05:32:25.155Z,56.60
2022-11-05T05:34:51.775Z,56.60
2022-11-05T05:37:18.467Z,56.60
2022-11-05T05:39:45.980Z,56.60
2022-11-05T05:42:12.861Z,56.60
2022-11-05T05:44:39.452Z,56.60
2022-11-05T05:47:06.065Z,56.60
2022-11-05T05:49:32.634Z,56.60
2022-11-05T05:51:59.213Z,56.60
2022-11-05T05:54:31.746Z,56.60
2022-11-05T05:56:59.375Z,56.60
2022-11-05T05:59:26.007Z,56.50
2022-11-05T06:01:52.644Z,56.60
2022-11-05T06:04:19.354Z,56.60
2022-11-05T06:06:46.859Z,56.60
2022-11-05T06:09:14.050Z,56.70
2022-11-05T06:11:41.175Z,56.60
2022-11-05T06:14:13.028Z,56.60
2022-11-05T06:16:39.881Z,56.60
2022-11-05T06:19:07.129Z,56.60
2022-11-05T06:21:33.795Z,56.60
2022-11-05T06:24:00.973Z,57.30
2022-11-05T06:26:27.549Z,56.60
2022-11-05T06:28:54.125Z,56.60
2022-11-05T06:31:20.695Z,56.60
2022-11-05T06:33:47.310Z,56.60
2022-11-05T06:36:17.723Z,56.60
2022-11-05T06:38:44.340Z,56.60
2022-11-05T06:41:11.012Z,56.60
2022-11-05T06:43:37.745Z,56.60
2022-11-05T06:46:04.504Z,56.60
2022-11-05T06:48:31.099Z,56.60
2022-11-05T06:50:57.710Z,56.60
2022-11-05T06:53:24.314Z,56.60
2022-11-05T06:55:50.891Z,56.60
2022-11-05T06:58:17.453Z,56.60
2022-11-05T07:00:44.135Z,56.50
2022-11-05T07:03:11.348Z,56.50
2022-11-05T07:05:40.291Z,56.60
2022-11-05T07:08:06.863Z,56.50
2022-11-05T07:10:33.479Z,56.40
2022-11-05T07:13:05.057Z,56.50
2022-11-05T07:15:34.278Z,56.60
2022-11-05T07:18:00.989Z,56.60
2022-11-05T07:20:33.271Z,56.60
2022-11-05T07:23:06.407Z,56.60
2022-11-05T07:25:33.304Z,56.60
2022-11-05T07:27:59.990Z,56.60
2022-11-05T07:30:26.774Z,56.60
2022-11-05T07:32:53.426Z,56.60
2022-11-05T07:35:20.057Z,56.60
2022-11-05T07:37:48.487Z,56.60
2022-11-05T07:40:15.902Z,56.60
2022-11-05T07:42:43.568Z,56.60
2022-11-05T07:45:10.723Z,56.60
2022-11-05T07:47:58.057Z,56.60
2022-11-05T07:50:26.586Z,56.60
2022-11-05T07:52:53.202Z,56.60
2022-11-05T07:55:20.008Z,56.60
2022-11-05T07:57:48.037Z,56.50
2022-11-05T08:00:16.407Z,56.50
2022-11-05T08:02:43.332Z,56.50
2022-11-05T08:05:10.272Z,56.50
2022-11-05T08:07:36.846Z,56.60
2022-11-05T08:10:04.256Z,56.40
2022-11-05T08:12:32.645Z,56.50
2022-11-05T08:14:59.251Z,56.50
2022-11-05T08:17:25.855Z,56.50
2022-11-05T08:19:52.443Z,56.50
2022-11-05T08:22:19.021Z,56.40
2022-11-05T08:24:45.611Z,56.40
2022-11-05T08:27:12.200Z,56.50
2022-11-05T08:29:38.864Z,56.40
2022-11-05T08:32:05.592Z,56.40
2022-11-05T08:34:32.228Z,56.50
2022-11-05T08:37:00.908Z,56.50
2022-11-05T08:39:27.545Z,56.50
2022-11-05T08:41:54.109Z,56.50
2022-11-05T08:44:20.698Z,56.50
2022-11-05T08:46:47.267Z,56.50
2022-11-05T08:49:14.090Z,56.50
2022-11-05T08:51:40.689Z,56.50
2022-11-05T08:54:07.460Z,56.50
2022-11-05T08:56:34.063Z,56.50
2022-11-05T08:59:01.032Z,56.50
2022-11-05T09:01:27.752Z,56.50
2022-11-05T09:03:54.450Z,56.50
2022-11-05T09:06:21.095Z,56.50
2022-11-05T09:08:47.674Z,56.40
2022-11-05T09:11:14.254Z,56.40
2022-11-05T09:13:40.855Z,56.40
2022-11-05T09:16:12.845Z,56.40
2022-11-05T09:18:39.425Z,56.40
2022-11-05T09:21:06.033Z,56.40
2022-11-05T09:23:32.609Z,56.40
2022-11-05T09:25:59.180Z,56.40
2022-11-05T09:28:25.768Z,56.40
2022-11-05T09:30:52.586Z,56.40
2022-11-05T09:33:20.743Z,56.40
2022-11-05T09:35:47.316Z,56.40
2022-11-05T09:38:13.971Z,56.40
2022-11-05T09:41:01.687Z,56.40
2022-11-05T09:43:37.215Z,56.40
2022-11-05T09:46:08.534Z,56.40
2022-11-05T09:48:35.146Z,56.40
2022-11-05T09:51:01.771Z,56.40
2022-11-05T09:53:28.367Z,56.30
2022-11-05T09:55:56.427Z,56.30
2022-11-05T09:58:43.554Z,56.40
2022-11-05T10:01:21.524Z,56.40
2022-11-05T10:03:49.798Z,56.40
2022-11-05T10:06:21.151Z,56.40
2022-11-05T10:08:51.691Z,56.40
2022-11-05T10:11:25.083Z,56.40
2022-11-05T10:13:59.664Z,56.40
2022-11-05T10:16:29.338Z,56.40
2022-11-05T10:19:06.416Z,56.40
2022-11-05T10:22:04.298Z,56.40
2022-11-05T10:24:20.651Z,56.50
2022-11-05T10:26:49.281Z,56.50
2022-11-05T10:29:21.760Z,56.50
2022-11-05T10:31:48.330Z,56.50
2022-11-05T10:34:17.730Z,56.50
2022-11-05T10:36:44.438Z,56.50
2022-11-05T10:39:15.737Z,56.50
2022-11-05T10:41:52.599Z,56.50
2022-11-05T10:44:48.443Z,56.50
2022-11-05T10:47:35.175Z,56.40
2022-11-05T10:50:02.556Z,56.40
2022-11-05T10:52:48.178Z,56.40
2022-11-05T10:55:25.720Z,56.50
2022-11-05T10:57:52.307Z,56.50
2022-11-05T11:00:23.614Z,56.50
2022-11-05T11:02:51.305Z,56.50
2022-11-05T11:05:30.397Z,56.50
2022-11-05T11:08:15.530Z,56.70
2022-11-05T11:10:48.799Z,56.60
2022-11-05T11:13:22.291Z,56.60
2022-11-05T11:15:50.920Z,56.70
2022-11-05T11:18:26.421Z,56.60
2022-11-05T11:20:53.016Z,56.70
2022-11-05T11:23:19.586Z,56.70
2022-11-05T11:25:48.117Z,56.70
2022-11-05T11:28:22.307Z,56.70
2022-11-05T11:30:50.992Z,56.70
2022-11-05T11:33:20.929Z,56.80
2022-11-05T11:35:47.521Z,56.80
2022-11-05T11:38:15.317Z,56.80
2022-11-05T11:40:41.901Z,56.80
2022-11-05T11:43:29.377Z,56.90
2022-11-05T11:46:00.660Z,56.90
2022-11-05T11:48:31.008Z,56.90
2022-11-05T11:50:58.230Z,56.90
2022-11-05T11:53:30.578Z,56.90
2022-11-05T11:55:59.302Z,56.90
2022-11-05T11:58:37.823Z,56.90
2022-11-05T12:01:31.672Z,56.90
2022-11-05T12:04:22.822Z,56.90
2022-11-05T12:07:25.620Z,56.80
2022-11-05T12:10:19.867Z,56.80
2022-11-05T12:13:20.778Z,56.80
2022-11-05T12:15:56.633Z,56.80
2022-11-05T12:18:45.114Z,56.80
2022-11-05T12:21:52.558Z,56.80
2022-11-05T12:24:57.152Z,56.80
2022-11-05T12:27:35.750Z,56.90
2022-11-05T12:30:08.261Z,56.90
2022-11-05T12:32:34.805Z,56.90
2022-11-05T12:35:19.167Z,56.90
2022-11-05T12:38:02.205Z,57.00
2022-11-05T12:41:04.274Z,57.00
2022-11-05T12:43:53.380Z,57.10
2022-11-05T12:46:35.063Z,57.00
2022-11-05T12:49:23.519Z,57.10
2022-11-05T12:52:11.310Z,57.10
2022-11-05T12:55:03.012Z,57.10
2022-11-05T12:57:30.653Z,57.20
2022-11-05T13:00:13.331Z,57.10
2022-11-05T13:02:41.151Z,57.10
2022-11-05T13:05:14.944Z,57.10
2022-11-05T13:07:54.155Z,57.10
2022-11-05T13:10:27.046Z,57.10
2022-11-05T13:13:05.369Z,57.00
2022-11-05T13:15:35.251Z,56.90
2022-11-05T13:18:09.411Z,57.00
2022-11-05T13:20:38.724Z,57.00
2022-11-05T13:23:17.510Z,57.00
2022-11-05T13:26:19.538Z,56.90
2022-11-05T13:28:51.013Z,56.80
2022-11-05T13:31:24.865Z,56.80
2022-11-05T13:33:51.553Z,56.80
2022-11-05T13:36:45.731Z,56.80
2022-11-05T13:39:27.496Z,56.90
2022-11-05T13:42:31.237Z,56.90
2022-11-05T13:45:17.368Z,57.00
2022-11-05T13:48:21.911Z,57.70
2022-11-05T13:51:09.488Z,57.00
2022-11-05T13:53:51.328Z,57.00
2022-11-05T13:56:48.969Z,57.00
2022-11-05T13:59:37.597Z,57.00
2022-11-05T14:02:10.613Z,56.90
2022-11-05T14:04:44.860Z,57.00
2022-11-05T14:07:18.491Z,57.00
2022-11-05T14:09:45.310Z,57.00
2022-11-05T14:12:19.985Z,57.00
2022-11-05T14:14:58.379Z,57.00
2022-11-05T14:17:31.178Z,57.00
2022-11-05T14:20:04.419Z,56.80
2022-11-05T14:22:33.970Z,56.90
2022-11-05T14:25:01.372Z,57.00
2022-11-05T14:27:37.149Z,56.80
2022-11-05T14:30:41.653Z,56.80
2022-11-05T14:33:15.658Z,56.80
2022-11-05T14:35:42.218Z,56.70
2022-11-05T14:38:29.078Z,56.60
2022-11-05T14:41:00.262Z,56.60
2022-11-05T14:43:27.579Z,56.60
2022-11-05T14:46:03.931Z,56.60
2022-11-05T14:48:40.619Z,56.60
2022-11-05T14:51:29.069Z,56.60
2022-11-05T14:54:17.805Z,56.50
2022-11-05T14:56:56.346Z,56.40
2022-11-05T14:59:31.389Z,56.40
2022-11-05T15:02:01.935Z,56.40
2022-11-05T15:04:30.206Z,56.40
2022-11-05T15:07:02.731Z,56.40
2022-11-05T15:09:44.941Z,56.40
2022-11-05T15:12:31.639Z,56.40
2022-11-05T15:15:02.853Z,56.40
2022-11-05T15:17:40.733Z,56.40
2022-11-05T15:20:21.198Z,56.50
2022-11-05T15:22:58.730Z,56.40
2022-11-05T15:25:33.827Z,56.40
2022-11-05T15:28:10.905Z,56.40
2022-11-05T15:30:37.817Z,56.40
2022-11-05T15:33:19.730Z,56.40
2022-11-05T15:35:46.318Z,56.40
2022-11-05T15:38:27.843Z,56.50
2022-11-05T15:41:05.455Z,56.60
2022-11-05T15:43:32.199Z,56.60
2022-11-05T15:46:06.960Z,56.70
2022-11-05T15:48:33.839Z,56.60
2022-11-05T15:51:00.478Z,56.70
2022-11-05T15:54:01.879Z,56.70
2022-11-05T15:56:28.252Z,56.60
2022-11-05T15:58:58.764Z,56.70
2022-11-05T16:01:37.852Z,56.70
2022-11-05T16:04:29.913Z,56.60
2022-11-05T16:06:58.322Z,56.70
2022-11-05T16:09:26.861Z,56.60
2022-11-05T16:12:12.336Z,56.60
2022-11-05T16:14:38.910Z,56.70
2022-11-05T16:17:19.466Z,56.70
2022-11-05T16:19:46.267Z,56.70
2022-11-05T16:22:12.877Z,56.60
2022-11-05T16:24:39.511Z,56.70
2022-11-05T16:27:06.154Z,56.70
2022-11-05T16:29:37.171Z,56.70
2022-11-05T16:32:17.006Z,56.70
2022-11-05T16:35:17.887Z,56.60
2022-11-05T16:37:50.740Z,56.70
2022-11-05T16:40:20.238Z,56.80
2022-11-05T16:42:51.353Z,56.70
2022-11-05T16:45:19.912Z,56.70
2022-11-05T16:47:46.691Z,56.80
2022-11-05T16:50:25.022Z,56.70
2022-11-05T16:52:51.727Z,56.80
2022-11-05T16:55:18.355Z,56.70
2022-11-05T16:57:46.646Z,56.80
2022-11-05T17:00:15.596Z,56.80
2022-11-05T17:02:42.648Z,56.80
2022-11-05T17:05:29.599Z,56.80
2022-11-05T17:07:56.399Z,56.70
2022-11-05T17:10:23.697Z,56.70
2022-11-05T17:12:50.318Z,56.70
2022-11-05T17:15:24.147Z,56.70
2022-11-05T17:17:51.130Z,56.70
2022-11-05T17:20:41.617Z,56.70
2022-11-05T17:23:10.098Z,56.80
2022-11-05T17:25:37.082Z,56.70
2022-11-05T17:28:03.896Z,56.70
2022-11-05T17:30:30.487Z,56.70
2022-11-05T17:32:57.151Z,56.70
2022-11-05T17:35:23.786Z,56.70
2022-11-05T17:37:50.531Z,56.80
2022-11-05T17:40:18.503Z,56.70
2022-11-05T17:42:45.586Z,56.70
2022-11-05T17:45:12.550Z,56.70
2022-11-05T17:47:39.527Z,56.70
2022-11-05T17:50:06.933Z,56.70
2022-11-05T17:52:33.508Z,56.70
2022-11-05T17:55:00.091Z,56.80
2022-11-05T17:57:27.351Z,56.70
2022-11-05T17:59:53.940Z,56.70
2022-11-05T18:02:20.573Z,56.70
2022-11-05T18:04:47.332Z,56.70
2022-11-05T18:07:14.953Z,56.70
2022-11-05T18:09:41.955Z,56.70
2022-11-05T18:12:08.519Z,57.30
2022-11-05T18:14:35.119Z,56.70
2022-11-05T18:17:01.698Z,56.70
2022-11-05T18:19:28.293Z,56.60
2022-11-05T18:21:55.085Z,56.70
2022-11-05T18:24:21.873Z,56.70
2022-11-05T18:26:48.801Z,56.70
2022-11-05T18:29:15.467Z,56.70
2022-11-05T18:31:42.051Z,56.70
2022-11-05T18:34:10.316Z,56.70
2022-11-05T18:36:36.907Z,56.70
2022-11-05T18:39:04.053Z,56.70
2022-11-05T18:41:30.660Z,56.70
2022-11-05T18:44:01.881Z,56.70
2022-11-05T18:46:56.601Z,56.60
2022-11-05T18:49:15.982Z,56.60
2022-11-05T18:51:42.615Z,56.60
2022-11-05T18:54:09.217Z,56.60
2022-11-05T18:56:36.059Z,56.60
2022-11-05T18:59:34.442Z,56.70
2022-11-05T19:01:49.351Z,56.60
2022-11-05T19:04:16.046Z,56.70
2022-11-05T19:06:42.619Z,56.60
2022-11-05T19:09:09.877Z,56.60
2022-11-05T19:11:36.515Z,56.60
2022-11-05T19:14:03.157Z,56.70
2022-11-05T19:16:30.290Z,56.60
2022-11-05T19:19:03.131Z,56.60
2022-11-05T19:21:29.903Z,56.60
2022-11-05T19:23:57.671Z,56.70
2022-11-05T19:26:28.681Z,56.70
2022-11-05T19:28:59.043Z,56.70
2022-11-05T19:31:25.852Z,56.60
2022-11-05T19:33:52.714Z,56.60
2022-11-05T19:36:20.583Z,56.60
2022-11-05T19:38:49.553Z,57.30
2022-11-05T19:41:18.196Z,56.60
2022-11-05T19:43:45.103Z,56.60
2022-11-05T19:46:13.874Z,56.60
2022-11-05T19:48:40.619Z,56.60
2022-11-05T19:51:08.034Z,56.60
2022-11-05T19:53:35.598Z,56.60
2022-11-05T19:56:06.714Z,56.60
2022-11-05T19:58:33.302Z,56.60
2022-11-05T20:00:59.874Z,56.60
2022-11-05T20:03:26.545Z,56.60
2022-11-05T20:05:53.196Z,56.60
2022-11-05T20:08:19.762Z,56.60
2022-11-05T20:10:46.345Z,56.60
2022-11-05T20:13:18.602Z,56.60
2022-11-05T20:15:46.594Z,56.70
2022-11-05T20:18:13.813Z,56.70
2022-11-05T20:20:41.707Z,56.60
2022-11-05T20:23:08.279Z,56.70
2022-11-05T20:25:34.857Z,56.70
2022-11-05T20:28:01.443Z,56.70
2022-11-05T20:30:28.036Z,56.70
2022-11-05T20:32:55.766Z,56.70
2022-11-05T20:35:22.945Z,56.70
2022-11-05T20:37:53.775Z,56.60
2022-11-05T20:40:20.858Z,56.60
2022-11-05T20:42:47.421Z,56.60
2022-11-05T20:45:14.041Z,56.60
2022-11-05T20:47:40.668Z,56.60
2022-11-05T20:50:08.054Z,57.20
2022-11-05T20:52:34.635Z,56.70
2022-11-05T20:55:02.165Z,56.60
2022-11-05T20:57:28.827Z,56.60
2022-11-05T20:59:55.412Z,56.60
2022-11-05T21:02:22.126Z,56.60
2022-11-05T21:04:49.005Z,56.60
2022-11-05T21:07:15.599Z,56.60
2022-11-05T21:09:42.179Z,56.50
2022-11-05T21:12:11.678Z,56.50
2022-11-05T21:14:39.043Z,56.60
2022-11-05T21:17:06.046Z,56.60
2022-11-05T21:19:32.888Z,56.60
2022-11-05T21:21:59.480Z,56.60
2022-11-05T21:24:26.121Z,56.60
2022-11-05T21:26:53.508Z,56.60
2022-11-05T21:29:20.096Z,56.60
2022-11-05T21:31:46.874Z,56.60
2022-11-05T21:34:13.612Z,56.70
2022-11-05T21:36:40.449Z,56.60
2022-11-05T21:39:12.977Z,56.60
2022-11-05T21:41:40.206Z,56.60
2022-11-05T21:44:06.773Z,56.60
2022-11-05T21:46:33.357Z,56.60
2022-11-05T21:48:59.953Z,56.60
2022-11-05T21:51:45.281Z,56.50
2022-11-05T21:54:30.603Z,56.60
2022-11-05T21:57:15.870Z,56.40
2022-11-05T21:59:48.330Z,56.50
2022-11-05T22:02:16.515Z,56.60
2022-11-05T22:04:46.138Z,56.60
2022-11-05T22:07:14.342Z,56.40
2022-11-05T22:09:40.995Z,56.40
2022-11-05T22:12:07.870Z,56.40
2022-11-05T22:14:34.457Z,56.60
2022-11-05T22:17:01.042Z,56.40
2022-11-05T22:19:27.668Z,56.40
2022-11-05T22:21:54.272Z,56.40
2022-11-05T22:24:20.873Z,56.40
2022-11-05T22:26:48.037Z,56.50
2022-11-05T22:29:14.843Z,56.50
2022-11-05T22:31:41.494Z,56.50
2022-11-05T22:34:12.360Z,56.50
2022-11-05T22:36:38.977Z,56.50
2022-11-05T22:39:05.735Z,56.50
2022-11-05T22:41:32.398Z,56.50
2022-11-05T22:43:59.012Z,56.60
2022-11-05T22:46:26.269Z,56.50
2022-11-05T22:48:53.021Z,56.60
2022-11-05T22:51:27.672Z,56.60
2022-11-05T22:53:54.862Z,56.60
2022-11-05T22:56:22.693Z,56.60
2022-11-05T22:58:49.472Z,56.50
2022-11-05T23:01:16.589Z,56.50
2022-11-05T23:03:43.946Z,56.50
2022-11-05T23:06:39.849Z,56.50
2022-11-05T23:09:30.427Z,56.40
2022-11-05T23:11:57.354Z,57.10
2022-11-05T23:14:24.132Z,56.40
2022-11-05T23:17:09.538Z,56.40
2022-11-05T23:19:54.722Z,56.40
2022-11-05T23:22:44.759Z,56.50
2022-11-05T23:25:13.855Z,56.50
2022-11-05T23:27:40.650Z,56.40
2022-11-05T23:30:10.387Z,56.50
2022-11-05T23:32:37.142Z,56.50
2022-11-05T23:35:03.944Z,56.50
2022-11-05T23:37:49.171Z,56.50
2022-11-05T23:40:24.555Z,56.50
2022-11-05T23:43:09.687Z,56.50
2022-11-05T23:45:56.981Z,56.50
2022-11-05T23:48:35.936Z,56.60
2022-11-05T23:51:07.551Z,56.60
2022-11-05T23:53:36.671Z,56.60
2022-11-05T23:56:08.677Z,56.60
2022-11-05T23:58:35.836Z,56.60
